Погода Уолнатна неделю

Калифорния, США

01 - 07 сентября
  • 01сентября
    Сегодня
    +17°
    +30°
    Ясно и безоблачно
    ВремяПогодаТемператураВлажностьДавлениеВетер, м/сВероятность осадков
    02:00Ясно и безоблачно+17°C75 %746 мм1.2 м/с2 %
    05:00Ясно и безоблачно+16°C82 %745 мм0.6 м/с2 %
    08:00Ясно и безоблачно+18°C76 %746 мм0.3 м/с2 %
    11:00Ясно и безоблачно+23°C47 %747 мм2.2 м/с2 %
    14:00Ясно и безоблачно+29°C34 %746 мм3.4 м/с2 %
    17:00Ясно и безоблачно+28°C36 %745 мм4.1 м/с2 %
    20:00Ясно и безоблачно+23°C54 %745 мм3.1 м/с2 %
    23:00Ясно и безоблачно+20°C69 %747 мм1.7 м/с2 %
  • 02сентября
    Среда
    +18°
    +30°
    Ясно и безоблачно
    ВремяПогодаТемператураВлажностьДавлениеВетер, м/сВероятность осадков
    02:00Ясно и безоблачно+19°C74 %747 мм0.8 м/с2 %
    05:00Ясно и безоблачно+18°C79 %746 мм0.3 м/с2 %
    08:00Ясно и безоблачно+19°C68 %747 мм0.1 м/с2 %
    11:00Ясно и безоблачно+24°C46 %747 мм2.0 м/с2 %
    14:00Ясно и безоблачно+29°C30 %746 мм3.2 м/с2 %
    17:00Ясно и безоблачно+29°C31 %745 мм4.3 м/с2 %
    20:00Ясно и безоблачно+24°C47 %745 мм3.2 м/с2 %
    23:00Ясно и безоблачно+22°C54 %746 мм1.6 м/с2 %
  • 03сентября
    Четверг
    +18°
    +30°
    Ясно и безоблачно
    ВремяПогодаТемператураВлажностьДавлениеВетер, м/сВероятность осадков
    02:00Ясно и безоблачно+20°C67 %746 мм0.9 м/с2 %
    05:00Ясно и безоблачно+18°C71 %745 мм0.3 м/с2 %
    08:00Практически безоблачно+20°C72 %746 мм0.4 м/с2 %
    11:00Ясно и безоблачно+24°C46 %745 мм2.3 м/с2 %
    14:00Ясно и безоблачно+29°C37 %744 мм3.6 м/с2 %
    17:00Ясно и безоблачно+28°C42 %743 мм4.2 м/с2 %
    20:00Ясно и безоблачно+24°C59 %743 мм3.4 м/с2 %
    23:00Ясно и безоблачно+22°C67 %745 мм1.9 м/с2 %
  • 04сентября
    Пятница
    +18°
    +31°
    Ясно и безоблачно
    ВремяПогодаТемператураВлажностьДавлениеВетер, м/сВероятность осадков
    02:00Ясно и безоблачно+20°C79 %744 мм1.3 м/с2 %
    05:00Ясно и безоблачно+19°C86 %744 мм0.4 м/с2 %
    08:00Ясно и безоблачно+20°C75 %745 мм0.0 м/с2 %
    11:00Ясно и безоблачно+25°C49 %745 мм1.6 м/с2 %
    14:00Ясно и безоблачно+30°C32 %744 мм3.3 м/с2 %
    17:00Ясно и безоблачно+30°C31 %744 мм3.9 м/с2 %
    20:00Ясно и безоблачно+25°C58 %744 мм3.4 м/с2 %
    23:00Ясно и безоблачно+22°C70 %745 мм1.9 м/с2 %
  • 05сентября
    Суббота
    +21°
    +33°
    Ясно и безоблачно
    ВремяПогодаТемператураВлажностьДавлениеВетер, м/сВероятность осадков
    02:00Ясно и безоблачно+20°C82 %745 мм1.1 м/с3 %
    05:00Ясно и безоблачно+19°C84 %744 мм0.6 м/с7 %
    08:00Ясно и безоблачно+21°C68 %745 мм0.0 м/с13 %
    11:00Ясно и безоблачно+27°C36 %745 мм1.7 м/с14 %
    14:00Ясно и безоблачно+32°C22 %744 мм3.3 м/с20 %
    17:00Ясно и безоблачно+32°C23 %744 мм4.1 м/с25 %
    20:00Ясно и безоблачно+27°C50 %744 мм3.5 м/с17 %
    23:00Практически безоблачно+25°C61 %745 мм1.9 м/с20 %
  • 06сентября
    Воскресенье
    +18°
    +33°
    Ясно и безоблачно
    ВремяПогодаТемператураВлажностьДавлениеВетер, м/сВероятность осадков
    05:00Практически безоблачно+22°C77 %744 мм0.5 м/с28 %
    11:00Ясно и безоблачно+28°C48 %745 мм1.3 м/с30 %
    17:00Ясно и безоблачно+32°C47 %743 мм3.1 м/с38 %
    23:00Ясно и безоблачно+23°C58 %745 мм1.5 м/с25 %
  • 07сентября
    Понедельник
    +17°
    +33°
    Ясно и безоблачно
    ВремяПогодаТемператураВлажностьДавлениеВетер, м/сВероятность осадков
    05:00Ясно и безоблачно+19°C67 %744 мм1.3 м/с18 %
    11:00Ясно и безоблачно+29°C35 %745 мм2.4 м/с23 %
    17:00Ясно и безоблачно+30°C31 %743 мм4.0 м/с23 %
    23:00Ясно и безоблачно+21°C64 %744 мм1.4 м/с15 %
Мы используем cookies
Соглашаюсь